Time;durP1;ratioP1;P1;durP2;ratioP2;P2;SDS_P1;SDS_P2;PMS_P1;PMS_P2;Temp;Humidity;BMP_temperature;BMP_pressure;BME280_temperature;BME280_humidity;BME280_pressure;Samples;Min_cycle;Max_cycle;Signal;HPM_P1;HPM_P2
2023/11/08 00:01:28;;;;;;;10.32;4.65;;;;;;;;;;5115908;28;20028;-37
2023/11/08 00:03:53;;;;;;;10.07;4.30;;;;;;;;;;5115969;28;20024;-37
2023/11/08 00:06:18;;;;;;;6.45;4.15;;;;;;;;;;5115886;28;20274;-37
2023/11/08 00:08:45;;;;;;;9.23;4.78;;;;;;;;;;5115871;28;20012;-36
2023/11/08 00:11:10;;;;;;;8.88;4.70;;;;;;;;;;5115747;28;20065;-37
2023/11/08 00:13:39;;;;;;;9.17;5.13;;;;;;;;;;5116097;28;20016;-37
2023/11/08 00:16:05;;;;;;;11.05;5.53;;;;;;;;;;5115715;28;20257;-37
2023/11/08 00:18:32;;;;;;;10.77;5.57;;;;;;;;;;5115260;28;20024;-37
2023/11/08 00:20:57;;;;;;;12.02;5.75;;;;;;;;;;5115331;28;20076;-42
2023/11/08 00:23:22;;;;;;;14.87;5.90;;;;;;;;;;5115886;28;20008;-37
2023/11/08 00:25:47;;;;;;;11.40;5.97;;;;;;;;;;5115328;28;20712;-37
2023/11/08 00:28:12;;;;;;;9.93;5.80;;;;;;;;;;5115707;28;20306;-37
2023/11/08 00:30:38;;;;;;;11.83;5.87;;;;;;;;;;5115169;28;20047;-37
2023/11/08 00:33:03;;;;;;;14.05;6.32;;;;;;;;;;5115405;28;20261;-36
2023/11/08 00:35:28;;;;;;;13.15;6.40;;;;;;;;;;5115121;28;20458;-37
2023/11/08 00:37:53;;;;;;;10.70;6.15;;;;;;;;;;5115052;28;20027;-37
2023/11/08 00:40:19;;;;;;;11.73;6.83;;;;;;;;;;5116044;28;20020;-37
2023/11/08 00:42:44;;;;;;;9.13;5.97;;;;;;;;;;5115987;28;20261;-37
2023/11/08 00:45:09;;;;;;;10.32;6.35;;;;;;;;;;5115224;28;20016;-37
2023/11/08 00:47:34;;;;;;;13.65;6.90;;;;;;;;;;5115413;28;20012;-37
2023/11/08 00:49:59;;;;;;;11.45;6.55;;;;;;;;;;5115392;28;20016;-37
2023/11/08 00:52:25;;;;;;;13.23;7.13;;;;;;;;;;5114642;28;20486;-37
2023/11/08 00:54:50;;;;;;;12.38;6.93;;;;;;;;;;5115021;28;20249;-37
2023/11/08 00:57:15;;;;;;;12.30;6.83;;;;;;;;;;5114552;28;20473;-38
2023/11/08 00:59:41;;;;;;;10.93;6.80;;;;;;;;;;5114937;28;20254;-37
2023/11/08 01:02:07;;;;;;;11.98;6.78;;;;;;;;;;5114503;28;20454;-37
2023/11/08 01:04:32;;;;;;;13.67;5.93;;;;;;;;;;5115121;28;20019;-37
2023/11/08 01:06:57;;;;;;;11.85;6.50;;;;;;;;;;5114760;28;20649;-37
2023/11/08 01:09:22;;;;;;;9.25;6.10;;;;;;;;;;5114499;28;20015;-37
2023/11/08 01:11:49;;;;;;;10.00;6.10;;;;;;;;;;5114303;28;20428;-37
2023/11/08 01:14:14;;;;;;;12.38;6.03;;;;;;;;;;5114276;28;20016;-37
2023/11/08 01:16:40;;;;;;;12.27;6.05;;;;;;;;;;5114603;28;20019;-37
2023/11/08 01:19:06;;;;;;;10.93;6.05;;;;;;;;;;5114549;28;20016;-36
2023/11/08 01:21:31;;;;;;;9.80;5.80;;;;;;;;;;5114513;28;20054;-37
2023/11/08 01:23:56;;;;;;;9.10;5.40;;;;;;;;;;5114156;28;20442;-36
2023/11/08 01:26:22;;;;;;;7.97;4.73;;;;;;;;;;5114233;28;20237;-36
2023/11/08 01:28:47;;;;;;;6.90;4.70;;;;;;;;;;5114115;28;20280;-36
2023/11/08 01:31:12;;;;;;;8.77;4.38;;;;;;;;;;5095834;28;20293;-37
2023/11/08 01:33:37;;;;;;;8.48;4.40;;;;;;;;;;5114369;28;20011;-37
2023/11/08 01:36:04;;;;;;;7.33;4.17;;;;;;;;;;5114026;28;20023;-37
2023/11/08 01:38:30;;;;;;;9.68;3.53;;;;;;;;;;5113974;28;20261;-37
2023/11/08 01:40:56;;;;;;;9.30;4.10;;;;;;;;;;5114180;28;20018;-37
2023/11/08 01:43:30;;;;;;;7.93;3.60;;;;;;;;;;5114546;28;20019;-37
2023/11/08 01:46:00;;;;;;;8.27;3.30;;;;;;;;;;5114190;28;20640;-37
2023/11/08 01:48:25;;;;;;;10.60;3.38;;;;;;;;;;5113947;28;20020;-37
2023/11/08 01:50:50;;;;;;;8.17;3.03;;;;;;;;;;5114443;28;20125;-37
2023/11/08 01:53:15;;;;;;;10.07;3.37;;;;;;;;;;5113719;28;20764;-37
2023/11/08 01:55:41;;;;;;;6.17;3.43;;;;;;;;;;5114122;28;20302;-37
2023/11/08 01:58:06;;;;;;;14.50;4.27;;;;;;;;;;5113822;28;20253;-37
2023/11/08 02:00:33;;;;;;;7.05;3.63;;;;;;;;;;5113729;28;20354;-37
2023/11/08 02:02:58;;;;;;;9.35;4.15;;;;;;;;;;5114333;28;20024;-37
2023/11/08 02:05:23;;;;;;;8.33;4.20;;;;;;;;;;5114417;28;20020;-37
2023/11/08 02:07:49;;;;;;;8.93;4.03;;;;;;;;;;5113796;28;20260;-38
2023/11/08 02:10:14;;;;;;;7.70;3.90;;;;;;;;;;5113773;28;20086;-37
2023/11/08 02:12:42;;;;;;;6.18;3.95;;;;;;;;;;5113851;28;20016;-37
2023/11/08 02:15:07;;;;;;;12.02;4.05;;;;;;;;;;5113948;28;20494;-37
2023/11/08 02:17:32;;;;;;;6.18;4.05;;;;;;;;;;5113919;28;20036;-37
2023/11/08 02:19:58;;;;;;;9.53;4.10;;;;;;;;;;5113639;28;20043;-37
2023/11/08 02:22:23;;;;;;;12.40;4.53;;;;;;;;;;5095257;28;20680;-37
2023/11/08 02:24:48;;;;;;;9.20;4.35;;;;;;;;;;5113876;28;20458;-37
2023/11/08 02:27:14;;;;;;;13.88;4.40;;;;;;;;;;5113530;28;20094;-37
2023/11/08 02:29:39;;;;;;;10.77;4.60;;;;;;;;;;5114122;28;20024;-37
2023/11/08 02:32:08;;;;;;;14.65;5.03;;;;;;;;;;5113476;28;20251;-37
2023/11/08 02:34:34;;;;;;;8.10;4.57;;;;;;;;;;5113680;28;20351;-36
2023/11/08 02:36:59;;;;;;;9.03;4.80;;;;;;;;;;5113504;28;20020;-37
2023/11/08 02:39:24;;;;;;;11.33;5.10;;;;;;;;;;5113642;28;20305;-37
2023/11/08 02:41:50;;;;;;;8.87;5.37;;;;;;;;;;5117641;28;20288;-37
2023/11/08 02:44:15;;;;;;;15.50;5.43;;;;;;;;;;5117291;28;20265;-37
2023/11/08 02:46:40;;;;;;;10.83;5.43;;;;;;;;;;5117810;28;20121;-37
2023/11/08 02:49:06;;;;;;;9.50;5.23;;;;;;;;;;5117148;28;20254;-37
2023/11/08 02:51:31;;;;;;;14.15;5.88;;;;;;;;;;5117221;28;20254;-36
2023/11/08 02:53:56;;;;;;;12.50;5.90;;;;;;;;;;5117046;28;20031;-37
2023/11/08 02:56:24;;;;;;;13.80;5.95;;;;;;;;;;5117293;28;20407;-37
2023/11/08 02:58:50;;;;;;;12.43;5.82;;;;;;;;;;5117280;28;20016;-37
2023/11/08 03:01:15;;;;;;;9.98;5.75;;;;;;;;;;5117590;28;20047;-37
2023/11/08 03:03:40;;;;;;;13.83;6.63;;;;;;;;;;5117463;28;20092;-37
2023/11/08 03:06:05;;;;;;;14.23;6.77;;;;;;;;;;5116875;28;20249;-37
2023/11/08 03:08:33;;;;;;;15.02;6.43;;;;;;;;;;5116762;28;20262;-37
2023/11/08 03:10:58;;;;;;;18.23;7.65;;;;;;;;;;5117003;28;20058;-37
2023/11/08 03:13:25;;;;;;;17.58;6.93;;;;;;;;;;5117297;28;20370;-37
2023/11/08 03:15:50;;;;;;;15.07;5.90;;;;;;;;;;5116654;28;20015;-37
2023/11/08 03:18:18;;;;;;;20.47;6.93;;;;;;;;;;5116671;28;20439;-37
2023/11/08 03:20:43;;;;;;;21.02;7.45;;;;;;;;;;5116743;28;20277;-37
2023/11/08 03:23:08;;;;;;;19.48;7.80;;;;;;;;;;5116768;28;20408;-37
2023/11/08 03:25:34;;;;;;;21.23;7.57;;;;;;;;;;5116980;28;20465;-37
2023/11/08 03:27:59;;;;;;;16.83;7.50;;;;;;;;;;5116742;28;20015;-37
2023/11/08 03:30:25;;;;;;;16.30;7.22;;;;;;;;;;5116969;28;20034;-37
2023/11/08 03:32:50;;;;;;;14.65;7.22;;;;;;;;;;5116525;28;20098;-37
2023/11/08 03:35:18;;;;;;;16.90;7.33;;;;;;;;;;5116330;28;20418;-37
2023/11/08 03:37:43;;;;;;;15.70;6.95;;;;;;;;;;5116536;28;20253;-37
2023/11/08 03:40:11;;;;;;;17.70;7.00;;;;;;;;;;5116390;28;20370;-37
2023/11/08 03:42:37;;;;;;;15.85;7.30;;;;;;;;;;5116391;28;20755;-37
2023/11/08 03:45:03;;;;;;;17.40;7.18;;;;;;;;;;5116091;28;20019;-37
2023/11/08 03:47:30;;;;;;;17.52;7.95;;;;;;;;;;5116266;28;20458;-37
2023/11/08 03:49:55;;;;;;;14.00;6.68;;;;;;;;;;5116577;28;20484;-37
2023/11/08 03:52:20;;;;;;;16.30;7.27;;;;;;;;;;5116005;28;20131;-37
2023/11/08 03:54:46;;;;;;;14.60;6.43;;;;;;;;;;5116487;28;20246;-37
2023/11/08 03:57:11;;;;;;;24.10;7.00;;;;;;;;;;5116169;28;20269;-38
2023/11/08 03:59:36;;;;;;;12.55;5.75;;;;;;;;;;5115781;28;20020;-37
2023/11/08 04:02:01;;;;;;;17.33;6.67;;;;;;;;;;5115671;28;20019;-37
2023/11/08 04:04:26;;;;;;;14.63;6.30;;;;;;;;;;5115701;28;20249;-37
2023/11/08 04:06:52;;;;;;;18.85;6.38;;;;;;;;;;5115882;28;20016;-37
2023/11/08 04:09:17;;;;;;;18.48;6.20;;;;;;;;;;5115910;28;20046;-37
2023/11/08 04:11:42;;;;;;;14.43;6.65;;;;;;;;;;5115439;28;20351;-37
2023/11/08 04:14:07;;;;;;;11.93;6.40;;;;;;;;;;5116095;28;20016;-37
2023/11/08 04:16:37;;;;;;;10.30;5.60;;;;;;;;;;5115567;28;20777;-37
2023/11/08 04:19:03;;;;;;;13.30;5.97;;;;;;;;;;5115429;28;20261;-37
2023/11/08 04:21:28;;;;;;;15.95;5.95;;;;;;;;;;5115611;28;20103;-37
2023/11/08 04:23:53;;;;;;;14.87;5.50;;;;;;;;;;5115965;28;20028;-37
2023/11/08 04:26:18;;;;;;;15.65;6.10;;;;;;;;;;5115266;28;20273;-37
2023/11/08 04:28:44;;;;;;;18.63;5.40;;;;;;;;;;5115308;28;20015;-37
2023/11/08 04:31:10;;;;;;;16.27;5.35;;;;;;;;;;5115507;28;20023;-37
2023/11/08 04:33:35;;;;;;;14.90;5.72;;;;;;;;;;5115283;28;20015;-37
2023/11/08 04:36:00;;;;;;;16.98;5.97;;;;;;;;;;5115425;28;20031;-37
2023/11/08 04:38:25;;;;;;;12.20;5.70;;;;;;;;;;5115116;28;20378;-37
2023/11/08 04:40:52;;;;;;;13.60;6.20;;;;;;;;;;5115143;28;20378;-37
2023/11/08 04:43:18;;;;;;;12.75;5.55;;;;;;;;;;5115003;28;20011;-37
2023/11/08 04:45:43;;;;;;;19.65;6.43;;;;;;;;;;5115599;28;20020;-37
2023/11/08 04:48:09;;;;;;;14.15;7.25;;;;;;;;;;5115056;28;20012;-37
2023/11/08 04:50:34;;;;;;;20.17;6.82;;;;;;;;;;5114824;28;20405;-37
2023/11/08 04:52:59;;;;;;;15.93;6.70;;;;;;;;;;5114764;28;20063;-37
2023/11/08 04:55:24;;;;;;;17.52;6.30;;;;;;;;;;5114999;28;20268;-37
2023/11/08 04:57:50;;;;;;;14.32;6.82;;;;;;;;;;5114646;28;20027;-37
2023/11/08 05:00:16;;;;;;;20.10;6.75;;;;;;;;;;5114616;28;20111;-37
2023/11/08 05:02:42;;;;;;;13.98;6.45;;;;;;;;;;5114035;28;20011;-37
2023/11/08 05:05:09;;;;;;;14.18;6.30;;;;;;;;;;5114831;28;20016;-37
2023/11/08 05:07:34;;;;;;;12.15;5.57;;;;;;;;;;5114758;28;20023;-37
2023/11/08 05:09:59;;;;;;;17.50;6.45;;;;;;;;;;5115022;28;20030;-37
2023/11/08 05:12:26;;;;;;;12.43;5.20;;;;;;;;;;5114869;28;20015;-37
2023/11/08 05:14:53;;;;;;;15.73;6.10;;;;;;;;;;5114659;28;20027;-37
2023/11/08 05:17:20;;;;;;;15.07;5.53;;;;;;;;;;5114565;28;20026;-37
2023/11/08 05:19:45;;;;;;;13.38;5.57;;;;;;;;;;5114351;28;20379;-37
2023/11/08 05:22:11;;;;;;;23.87;5.73;;;;;;;;;;5114169;28;20019;-37
2023/11/08 05:24:36;;;;;;;10.90;4.70;;;;;;;;;;5114473;28;20264;-37
2023/11/08 05:27:02;;;;;;;14.50;4.50;;;;;;;;;;5114446;28;20015;-37
2023/11/08 05:29:27;;;;;;;16.10;4.38;;;;;;;;;;5114454;28;20016;-37
2023/11/08 05:31:53;;;;;;;11.33;4.20;;;;;;;;;;5095851;28;20471;-37
2023/11/08 05:34:18;;;;;;;12.73;4.05;;;;;;;;;;5113984;28;20399;-37
2023/11/08 05:36:43;;;;;;;10.40;3.73;;;;;;;;;;5114629;28;20061;-37
2023/11/08 05:39:08;;;;;;;12.50;3.87;;;;;;;;;;5114055;28;20742;-37
2023/11/08 05:41:34;;;;;;;12.33;3.90;;;;;;;;;;5113855;28;20281;-37
2023/11/08 05:44:00;;;;;;;13.45;3.88;;;;;;;;;;5114125;28;20728;-37
2023/11/08 05:46:25;;;;;;;9.95;3.83;;;;;;;;;;5113903;28;20064;-37
2023/11/08 05:48:51;;;;;;;13.02;3.83;;;;;;;;;;5114263;28;20023;-37
2023/11/08 05:51:16;;;;;;;12.48;3.90;;;;;;;;;;5114194;28;20095;-37
2023/11/08 05:53:41;;;;;;;11.40;3.83;;;;;;;;;;5113788;28;20054;-37
2023/11/08 05:56:07;;;;;;;13.45;3.72;;;;;;;;;;5113895;28;20368;-37
2023/11/08 05:58:35;;;;;;;13.37;3.87;;;;;;;;;;5114325;28;20069;-37
2023/11/08 06:01:01;;;;;;;10.23;3.40;;;;;;;;;;5113962;28;20280;-37
2023/11/08 06:03:27;;;;;;;9.90;3.42;;;;;;;;;;5113828;28;20099;-37
2023/11/08 06:05:52;;;;;;;10.48;3.80;;;;;;;;;;5114061;28;20094;-37
2023/11/08 06:08:17;;;;;;;10.37;3.50;;;;;;;;;;5095469;28;20077;-37
2023/11/08 06:10:43;;;;;;;17.40;3.80;;;;;;;;;;5113965;28;20340;-37
2023/11/08 06:13:09;;;;;;;13.65;4.00;;;;;;;;;;5113830;28;20027;-45
2023/11/08 06:15:34;;;;;;;9.23;3.30;;;;;;;;;;5115531;28;20023;-37
2023/11/08 06:18:00;;;;;;;11.77;3.35;;;;;;;;;;5118386;28;20016;-37
2023/11/08 06:20:25;;;;;;;15.75;3.22;;;;;;;;;;5099414;28;20024;-37
2023/11/08 06:22:50;;;;;;;11.20;3.10;;;;;;;;;;5117756;28;20016;-37
2023/11/08 06:25:16;;;;;;;9.48;3.15;;;;;;;;;;5100238;28;20265;-37
2023/11/08 06:27:41;;;;;;;9.30;3.30;;;;;;;;;;5117546;28;20019;-37
2023/11/08 06:30:07;;;;;;;14.70;3.50;;;;;;;;;;5118139;28;20015;-37
2023/11/08 06:32:33;;;;;;;11.02;3.13;;;;;;;;;;5117758;28;20272;-37
2023/11/08 06:35:00;;;;;;;10.07;3.58;;;;;;;;;;5117306;28;20521;-37
2023/11/08 06:37:26;;;;;;;10.00;3.42;;;;;;;;;;5117378;28;20049;-37
2023/11/08 06:39:51;;;;;;;12.75;3.67;;;;;;;;;;5117430;28;20024;-37
2023/11/08 06:42:16;;;;;;;15.85;3.53;;;;;;;;;;5098990;28;20026;-37
2023/11/08 06:44:42;;;;;;;9.50;3.17;;;;;;;;;;5117528;28;20095;-37
2023/11/08 06:47:07;;;;;;;10.07;3.45;;;;;;;;;;5117194;28;20373;-37
2023/11/08 06:49:32;;;;;;;6.97;3.00;;;;;;;;;;5098979;28;20507;-37
2023/11/08 06:51:57;;;;;;;11.02;3.58;;;;;;;;;;5117132;28;20289;-38
2023/11/08 06:54:22;;;;;;;10.60;3.17;;;;;;;;;;5117701;28;20023;-37
2023/11/08 06:56:48;;;;;;;9.27;3.30;;;;;;;;;;5117622;28;20023;-37
2023/11/08 06:59:13;;;;;;;10.68;3.53;;;;;;;;;;5117048;28;20265;-37
2023/11/08 07:01:39;;;;;;;13.02;3.80;;;;;;;;;;5117096;28;20030;-37
2023/11/08 07:04:05;;;;;;;11.60;3.58;;;;;;;;;;5098708;28;20022;-37
2023/11/08 07:06:30;;;;;;;8.18;3.00;;;;;;;;;;5117380;28;20026;-37
2023/11/08 07:08:55;;;;;;;11.70;3.57;;;;;;;;;;5117302;28;20058;-37
2023/11/08 07:11:21;;;;;;;8.97;2.80;;;;;;;;;;5116592;28;20739;-37
2023/11/08 07:13:46;;;;;;;7.13;2.83;;;;;;;;;;5117048;28;20257;-37
2023/11/08 07:16:11;;;;;;;9.87;3.10;;;;;;;;;;5116212;28;20011;-37
2023/11/08 07:18:36;;;;;;;10.57;3.00;;;;;;;;;;5115466;28;20616;-37
2023/11/08 07:21:01;;;;;;;8.87;2.97;;;;;;;;;;5116368;28;20330;-39
2023/11/08 07:23:26;;;;;;;9.20;3.53;;;;;;;;;;5117863;28;20254;-37
2023/11/08 07:25:52;;;;;;;6.27;3.10;;;;;;;;;;5097424;28;20020;-37
2023/11/08 07:28:18;;;;;;;6.77;3.27;;;;;;;;;;5116294;28;20763;-37
2023/11/08 07:30:43;;;;;;;9.57;3.80;;;;;;;;;;5116502;28;20261;-38
2023/11/08 07:33:08;;;;;;;7.67;2.73;;;;;;;;;;5116352;28;20485;-38
2023/11/08 07:35:33;;;;;;;6.83;2.77;;;;;;;;;;5116854;28;20253;-37
2023/11/08 07:37:58;;;;;;;8.02;2.95;;;;;;;;;;5116543;28;20727;-37
2023/11/08 07:40:24;;;;;;;7.30;2.95;;;;;;;;;;5116419;28;20419;-37
2023/11/08 07:42:50;;;;;;;6.85;2.80;;;;;;;;;;5115492;28;20123;-38
2023/11/08 07:45:16;;;;;;;6.95;2.75;;;;;;;;;;5116403;28;20098;-38
2023/11/08 07:47:42;;;;;;;8.35;2.53;;;;;;;;;;5115892;28;20073;-37
2023/11/08 07:50:07;;;;;;;7.05;2.50;;;;;;;;;;5115966;28;20362;-38
2023/11/08 07:52:32;;;;;;;6.97;2.60;;;;;;;;;;5115953;28;20054;-37
2023/11/08 07:54:58;;;;;;;8.80;2.40;;;;;;;;;;5115858;28;20028;-37
2023/11/08 07:57:24;;;;;;;7.18;2.60;;;;;;;;;;5116129;28;20257;-38
2023/11/08 07:59:49;;;;;;;7.88;2.30;;;;;;;;;;5115660;28;20106;-37
2023/11/08 08:02:15;;;;;;;6.57;2.13;;;;;;;;;;5116176;28;20142;-37
2023/11/08 08:04:40;;;;;;;4.90;2.13;;;;;;;;;;5115740;28;20241;-37
2023/11/08 08:07:06;;;;;;;5.68;2.10;;;;;;;;;;5115568;28;20097;-38
2023/11/08 08:09:32;;;;;;;6.13;2.28;;;;;;;;;;5115627;28;20019;-37
2023/11/08 08:11:57;;;;;;;5.22;2.05;;;;;;;;;;5115490;28;20020;-37
2023/11/08 08:14:23;;;;;;;8.52;2.35;;;;;;;;;;5115810;28;20018;-38
2023/11/08 08:16:50;;;;;;;5.15;2.42;;;;;;;;;;5115428;28;20034;-37
2023/11/08 08:19:16;;;;;;;4.18;2.33;;;;;;;;;;5116136;28;20068;-37
2023/11/08 08:21:43;;;;;;;7.22;2.20;;;;;;;;;;5115434;28;20019;-37
2023/11/08 08:24:08;;;;;;;7.53;2.50;;;;;;;;;;5115240;28;20039;-37
2023/11/08 08:26:34;;;;;;;7.45;2.15;;;;;;;;;;5115390;28;20062;-38
2023/11/08 08:29:00;;;;;;;7.82;2.90;;;;;;;;;;5115506;28;20016;-37
2023/11/08 08:31:26;;;;;;;5.03;2.45;;;;;;;;;;5115232;28;20094;-37
2023/11/08 08:33:51;;;;;;;10.65;2.72;;;;;;;;;;5115299;28;20119;-37
2023/11/08 08:36:17;;;;;;;6.32;2.80;;;;;;;;;;5115133;28;20072;-37
2023/11/08 08:38:43;;;;;;;9.82;2.55;;;;;;;;;;5114162;28;20027;-37
2023/11/08 08:41:08;;;;;;;8.98;2.58;;;;;;;;;;5097416;28;20148;-37
2023/11/08 08:43:33;;;;;;;7.20;2.57;;;;;;;;;;5115000;28;20034;-37
2023/11/08 08:45:58;;;;;;;8.90;2.50;;;;;;;;;;5114903;28;20306;-37
2023/11/08 08:48:23;;;;;;;7.47;2.80;;;;;;;;;;5114765;28;20047;-37
2023/11/08 08:50:49;;;;;;;8.65;2.60;;;;;;;;;;5114975;28;20257;-38
2023/11/08 08:53:14;;;;;;;7.00;2.53;;;;;;;;;;5114669;28;20048;-37
2023/11/08 08:55:39;;;;;;;8.30;2.70;;;;;;;;;;5115294;28;20320;-37
2023/11/08 08:58:05;;;;;;;6.77;2.53;;;;;;;;;;5114628;28;20265;-37
2023/11/08 09:00:30;;;;;;;7.28;2.47;;;;;;;;;;5114753;28;20318;-36
2023/11/08 09:02:55;;;;;;;7.60;2.90;;;;;;;;;;5114529;28;20019;-37
2023/11/08 09:05:21;;;;;;;6.03;2.53;;;;;;;;;;5114586;28;20249;-37
2023/11/08 09:07:49;;;;;;;5.32;2.40;;;;;;;;;;5114468;28;20268;-37
2023/11/08 09:10:15;;;;;;;6.80;2.63;;;;;;;;;;5115028;28;20024;-37
2023/11/08 09:12:40;;;;;;;6.13;2.60;;;;;;;;;;5114867;28;20024;-37
2023/11/08 09:15:05;;;;;;;6.72;2.75;;;;;;;;;;5114291;28;20242;-36
2023/11/08 09:17:31;;;;;;;11.90;2.80;;;;;;;;;;5114367;28;20045;-37
2023/11/08 09:19:56;;;;;;;8.45;2.50;;;;;;;;;;5114437;28;20068;-37
2023/11/08 09:22:22;;;;;;;8.50;2.85;;;;;;;;;;5114349;28;20012;-37
2023/11/08 09:24:47;;;;;;;11.98;2.72;;;;;;;;;;5114043;28;20039;-37
2023/11/08 09:27:12;;;;;;;7.17;2.63;;;;;;;;;;5114714;28;20073;-37
2023/11/08 09:29:37;;;;;;;10.63;3.15;;;;;;;;;;5114408;28;20253;-37
2023/11/08 09:32:05;;;;;;;10.20;3.03;;;;;;;;;;5114135;28;20320;-37
2023/11/08 09:34:31;;;;;;;9.95;2.83;;;;;;;;;;5114792;28;20348;-37
2023/11/08 09:36:57;;;;;;;11.63;3.50;;;;;;;;;;5114043;28;20058;-37
2023/11/08 09:39:24;;;;;;;9.15;3.72;;;;;;;;;;5114299;28;20019;-37
2023/11/08 09:41:50;;;;;;;10.63;3.00;;;;;;;;;;5113912;28;20024;-37
2023/11/08 09:44:15;;;;;;;9.10;2.90;;;;;;;;;;5113965;28;20101;-37
2023/11/08 09:46:41;;;;;;;9.73;3.40;;;;;;;;;;5114227;28;20027;-37
2023/11/08 09:49:06;;;;;;;8.50;3.40;;;;;;;;;;5114177;28;20015;-37
2023/11/08 09:51:31;;;;;;;9.73;2.78;;;;;;;;;;5113701;28;20015;-36
2023/11/08 09:54:00;;;;;;;11.02;2.65;;;;;;;;;;5113887;28;20097;-36
2023/11/08 09:56:25;;;;;;;8.25;3.10;;;;;;;;;;5113991;28;20019;-37
2023/11/08 09:58:51;;;;;;;14.67;3.10;;;;;;;;;;5114121;28;20011;-37
2023/11/08 10:01:16;;;;;;;8.25;2.70;;;;;;;;;;5113919;28;20269;-36
2023/11/08 10:03:45;;;;;;;11.50;2.78;;;;;;;;;;5113698;28;20094;-45
2023/11/08 10:06:11;;;;;;;11.30;4.00;;;;;;;;;;5113700;28;20029;-36
2023/11/08 10:08:36;;;;;;;9.77;2.90;;;;;;;;;;5113997;28;20016;-36
2023/11/08 10:11:01;;;;;;;15.03;3.20;;;;;;;;;;5113900;28;20386;-36
2023/11/08 10:13:42;;;;;;;13.52;3.42;;;;;;;;;;5113648;28;20352;-37
2023/11/08 10:16:09;;;;;;;13.98;3.00;;;;;;;;;;5114036;28;20373;-37
2023/11/08 10:18:34;;;;;;;13.65;2.88;;;;;;;;;;5113624;28;20059;-37
2023/11/08 10:21:08;;;;;;;9.90;3.00;;;;;;;;;;5113595;28;20059;-37
2023/11/08 10:23:33;;;;;;;11.23;2.90;;;;;;;;;;5114082;28;20332;-38
2023/11/08 10:26:15;;;;;;;12.27;3.00;;;;;;;;;;5113599;28;20061;-36
2023/11/08 10:29:01;;;;;;;9.43;2.85;;;;;;;;;;5113659;28;20019;-37
2023/11/08 10:31:37;;;;;;;10.85;2.60;;;;;;;;;;5113772;28;20470;-37
2023/11/08 10:34:09;;;;;;;9.73;2.92;;;;;;;;;;5113543;28;20012;-37
2023/11/08 10:36:35;;;;;;;12.00;2.67;;;;;;;;;;5114541;28;20380;-37
2023/11/08 10:39:01;;;;;;;8.45;2.60;;;;;;;;;;5113368;28;20028;-37
2023/11/08 10:41:27;;;;;;;9.55;2.60;;;;;;;;;;5113529;28;20102;-36
2023/11/08 10:44:12;;;;;;;12.02;2.72;;;;;;;;;;5113883;28;20044;-37
2023/11/08 10:46:39;;;;;;;8.00;2.90;;;;;;;;;;5113716;28;20019;-37
2023/11/08 10:49:07;;;;;;;9.45;2.70;;;;;;;;;;5113469;28;20045;-37
2023/11/08 10:51:37;;;;;;;8.02;2.40;;;;;;;;;;5113385;28;20459;-37
2023/11/08 10:54:03;;;;;;;12.10;2.90;;;;;;;;;;5113481;28;20055;-37
2023/11/08 10:56:29;;;;;;;14.68;2.75;;;;;;;;;;5113244;28;20076;-37
2023/11/08 10:58:58;;;;;;;14.23;3.30;;;;;;;;;;5113291;28;20106;-37
2023/11/08 11:01:28;;;;;;;12.55;3.03;;;;;;;;;;5114840;28;20378;-37
2023/11/08 11:04:00;;;;;;;14.25;2.90;;;;;;;;;;5098630;28;20197;-37
2023/11/08 11:06:25;;;;;;;14.60;3.08;;;;;;;;;;5117265;28;20008;-37
2023/11/08 11:08:54;;;;;;;8.15;2.33;;;;;;;;;;5098511;28;20484;-38
2023/11/08 11:11:19;;;;;;;10.80;2.90;;;;;;;;;;5116592;28;20073;-37
2023/11/08 11:13:55;;;;;;;14.07;2.80;;;;;;;;;;5116625;28;20023;-37
2023/11/08 11:16:29;;;;;;;10.30;2.83;;;;;;;;;;5116597;28;20020;-37
2023/11/08 11:18:59;;;;;;;13.98;2.72;;;;;;;;;;5116897;28;20028;-37
2023/11/08 11:21:27;;;;;;;14.13;3.00;;;;;;;;;;5116417;28;20023;-37
2023/11/08 11:23:52;;;;;;;7.75;2.20;;;;;;;;;;5116661;28;20072;-37
2023/11/08 11:26:38;;;;;;;9.57;2.73;;;;;;;;;;5117070;28;20011;-36
2023/11/08 11:29:07;;;;;;;14.25;2.75;;;;;;;;;;5116565;28;20715;-37
2023/11/08 11:31:36;;;;;;;9.80;2.72;;;;;;;;;;5116926;28;20050;-37
2023/11/08 11:34:29;;;;;;;10.05;2.60;;;;;;;;;;5116513;28;20022;-37
2023/11/08 11:37:05;;;;;;;10.48;2.50;;;;;;;;;;5116138;28;20024;-37
2023/11/08 11:39:34;;;;;;;9.35;2.00;;;;;;;;;;5116342;28;20039;-37
2023/11/08 11:42:03;;;;;;;6.15;2.00;;;;;;;;;;5116291;28;20019;-37
2023/11/08 11:44:46;;;;;;;9.15;2.22;;;;;;;;;;5116367;28;20454;-37
2023/11/08 11:47:15;;;;;;;13.30;2.50;;;;;;;;;;5116355;28;20103;-37
2023/11/08 11:49:45;;;;;;;9.38;2.40;;;;;;;;;;5116034;28;20019;-38
2023/11/08 11:52:11;;;;;;;7.75;2.20;;;;;;;;;;5115817;28;20490;-37
2023/11/08 11:54:42;;;;;;;7.60;2.00;;;;;;;;;;5116086;28;20166;-37
2023/11/08 11:57:08;;;;;;;10.90;2.30;;;;;;;;;;5116334;28;20055;-35
2023/11/08 11:59:33;;;;;;;9.20;2.10;;;;;;;;;;5115832;28;20020;-37
2023/11/08 12:01:59;;;;;;;9.27;2.55;;;;;;;;;;5115713;28;20027;-37
2023/11/08 12:04:24;;;;;;;11.48;2.85;;;;;;;;;;5116082;28;20444;-37
2023/11/08 12:06:49;;;;;;;11.23;2.30;;;;;;;;;;5116034;28;20015;-37
2023/11/08 12:09:15;;;;;;;8.68;2.50;;;;;;;;;;5115013;28;20064;-38
2023/11/08 12:11:46;;;;;;;10.07;3.00;;;;;;;;;;5114966;28;20060;-37
2023/11/08 12:14:11;;;;;;;10.82;2.60;;;;;;;;;;5115540;28;20015;-37
2023/11/08 12:16:38;;;;;;;10.52;3.20;;;;;;;;;;5114689;28;20026;-37
2023/11/08 12:19:03;;;;;;;10.30;3.05;;;;;;;;;;5114412;28;20172;-37
2023/11/08 12:21:30;;;;;;;7.57;2.70;;;;;;;;;;5115185;28;20453;-37
2023/11/08 12:23:55;;;;;;;9.57;2.60;;;;;;;;;;5115253;28;20047;-37
2023/11/08 12:26:20;;;;;;;12.77;2.70;;;;;;;;;;5112753;28;20096;-37
2023/11/08 12:28:46;;;;;;;7.93;2.50;;;;;;;;;;5114700;28;20728;-38
2023/11/08 12:31:12;;;;;;;9.65;2.90;;;;;;;;;;5115122;28;20269;-37
2023/11/08 12:33:37;;;;;;;9.23;2.90;;;;;;;;;;5114898;28;20016;-37
2023/11/08 12:36:03;;;;;;;10.95;2.72;;;;;;;;;;5114820;28;20038;-37
2023/11/08 12:38:28;;;;;;;9.57;2.58;;;;;;;;;;5115317;28;20378;-37
2023/11/08 12:41:00;;;;;;;7.47;3.00;;;;;;;;;;5114968;28;20478;-37
2023/11/08 12:43:25;;;;;;;11.00;3.13;;;;;;;;;;5115445;28;20261;-37
2023/11/08 12:45:59;;;;;;;10.38;2.40;;;;;;;;;;5115094;28;20022;-37
2023/11/08 12:48:27;;;;;;;12.73;3.00;;;;;;;;;;5115101;28;20426;-37
2023/11/08 12:50:52;;;;;;;8.80;2.78;;;;;;;;;;5114980;28;20027;-37
2023/11/08 12:53:17;;;;;;;8.60;2.75;;;;;;;;;;5114607;28;20047;-37
2023/11/08 12:55:42;;;;;;;7.85;2.60;;;;;;;;;;5114603;28;20023;-37
2023/11/08 12:58:21;;;;;;;8.73;2.90;;;;;;;;;;5114447;28;20027;-37
2023/11/08 13:00:47;;;;;;;8.27;2.90;;;;;;;;;;5115035;28;20106;-37
2023/11/08 13:03:14;;;;;;;9.77;2.92;;;;;;;;;;5114245;28;20020;-37
2023/11/08 13:05:39;;;;;;;11.18;2.85;;;;;;;;;;5114182;28;20022;-37
2023/11/08 13:08:08;;;;;;;9.05;2.70;;;;;;;;;;5114372;28;20020;-37
2023/11/08 13:10:34;;;;;;;10.48;2.80;;;;;;;;;;5114697;28;20020;-37
2023/11/08 13:12:59;;;;;;;7.68;2.85;;;;;;;;;;5114502;28;20020;-37
2023/11/08 13:15:24;;;;;;;8.50;3.00;;;;;;;;;;5114959;28;20012;-37
2023/11/08 13:17:49;;;;;;;9.73;3.30;;;;;;;;;;5114961;28;20285;-37
2023/11/08 13:20:15;;;;;;;5.95;2.80;;;;;;;;;;5114591;28;20408;-37
2023/11/08 13:22:42;;;;;;;10.77;3.22;;;;;;;;;;5114450;28;20019;-37
2023/11/08 13:25:07;;;;;;;8.60;2.65;;;;;;;;;;5113848;28;20060;-37
2023/11/08 13:27:32;;;;;;;7.13;2.50;;;;;;;;;;5114173;28;20023;-37
2023/11/08 13:29:57;;;;;;;7.60;2.30;;;;;;;;;;5114464;28;20020;-38
2023/11/08 13:32:23;;;;;;;14.67;2.90;;;;;;;;;;5114156;28;20728;-37
2023/11/08 13:34:48;;;;;;;9.90;2.80;;;;;;;;;;5114346;28;20257;-37
2023/11/08 13:37:13;;;;;;;11.05;2.50;;;;;;;;;;5113831;28;20762;-37
2023/11/08 13:39:38;;;;;;;8.38;2.80;;;;;;;;;;5114320;28;20019;-37
2023/11/08 13:42:04;;;;;;;9.27;2.83;;;;;;;;;;5113780;28;20393;-37
2023/11/08 13:44:29;;;;;;;10.07;3.10;;;;;;;;;;5113702;28;20024;-37
2023/11/08 13:46:54;;;;;;;14.80;2.77;;;;;;;;;;5113628;28;20008;-34
2023/11/08 13:49:21;;;;;;;5.85;2.63;;;;;;;;;;5114034;28;20349;-35
2023/11/08 13:51:46;;;;;;;7.57;2.33;;;;;;;;;;5113392;28;20020;-35
2023/11/08 13:54:11;;;;;;;7.93;2.80;;;;;;;;;;5114260;28;20020;-35
2023/11/08 13:56:37;;;;;;;9.67;2.33;;;;;;;;;;5113668;28;20252;-33
2023/11/08 13:59:03;;;;;;;11.32;3.03;;;;;;;;;;5113673;28;20253;-35
2023/11/08 14:01:28;;;;;;;6.88;2.33;;;;;;;;;;5113877;28;20055;-34
2023/11/08 14:03:54;;;;;;;8.03;2.53;;;;;;;;;;5113725;28;20020;-34
2023/11/08 14:06:19;;;;;;;10.30;2.90;;;;;;;;;;5113980;28;20257;-35
2023/11/08 14:08:44;;;;;;;9.13;2.60;;;;;;;;;;5113690;28;20351;-36
2023/11/08 14:11:10;;;;;;;8.40;2.47;;;;;;;;;;5114111;28;20378;-35
2023/11/08 14:13:35;;;;;;;8.50;2.35;;;;;;;;;;5113602;28;20593;-35
2023/11/08 14:16:00;;;;;;;6.97;2.40;;;;;;;;;;5113915;28;20106;-38
2023/11/08 14:18:26;;;;;;;9.35;2.95;;;;;;;;;;5113705;28;20034;-35
2023/11/08 14:20:53;;;;;;;6.43;2.23;;;;;;;;;;5114006;28;20055;-34
2023/11/08 14:23:18;;;;;;;7.03;2.50;;;;;;;;;;5113567;28;20256;-35
2023/11/08 14:25:43;;;;;;;4.60;2.17;;;;;;;;;;5113541;28;20016;-35
2023/11/08 14:28:09;;;;;;;8.67;2.40;;;;;;;;;;5113795;28;20249;-36
2023/11/08 14:30:34;;;;;;;5.15;2.38;;;;;;;;;;5113376;28;20281;-33